createdAt,value
2018-03-15T00:04:05.437Z,81.60
2018-03-15T00:09:00.363Z,81.40
2018-03-15T00:13:54.767Z,81.50
2018-03-15T00:18:49.131Z,81.30
2018-03-15T00:23:44.246Z,81.50
2018-03-15T00:28:38.591Z,81.50
2018-03-15T00:33:34.079Z,81.80
2018-03-15T00:38:28.474Z,81.80
2018-03-15T00:43:22.941Z,81.90
2018-03-15T00:48:17.362Z,82.20
2018-03-15T00:53:11.792Z,82.10
2018-03-15T00:58:07.088Z,82.40
2018-03-15T01:03:01.590Z,82.40
2018-03-15T01:07:56.054Z,82.50
2018-03-15T01:12:51.252Z,83.00
2018-03-15T01:17:45.991Z,82.90
2018-03-15T01:22:44.045Z,83.10
2018-03-15T01:27:38.404Z,82.90
2018-03-15T01:32:33.234Z,83.30
2018-03-15T01:37:28.056Z,83.00
2018-03-15T01:42:22.389Z,82.70
2018-03-15T01:47:17.026Z,83.00
2018-03-15T01:52:12.359Z,82.60
2018-03-15T01:57:08.677Z,82.50
2018-03-15T02:02:03.363Z,82.40
2018-03-15T02:06:57.728Z,82.50
2018-03-15T02:11:53.161Z,82.80
2018-03-15T02:16:47.749Z,82.80
2018-03-15T02:21:42.325Z,82.60
2018-03-15T02:26:37.020Z,82.70
2018-03-15T02:31:31.676Z,82.70
2018-03-15T02:36:26.212Z,82.40
2018-03-15T02:41:20.740Z,82.20
2018-03-15T02:46:15.133Z,82.00
2018-03-15T02:51:09.620Z,81.60
2018-03-15T02:56:03.963Z,81.40
2018-03-15T03:00:58.324Z,80.90
2018-03-15T03:05:53.434Z,80.70
2018-03-15T03:10:48.732Z,80.50
2018-03-15T03:15:43.202Z,80.40
2018-03-15T03:20:37.586Z,80.30
2018-03-15T03:25:32.946Z,79.10
2018-03-15T03:30:27.952Z,79.10
2018-03-15T03:35:23.118Z,78.30
2018-03-15T03:40:17.622Z,78.30
2018-03-15T03:45:12.780Z,78.80
2018-03-15T03:50:07.144Z,78.80
2018-03-15T03:55:01.601Z,78.50
2018-03-15T03:59:56.528Z,78.20
2018-03-15T04:04:50.926Z,77.90
2018-03-15T04:09:45.236Z,77.70
2018-03-15T04:14:39.646Z,77.00
2018-03-15T04:19:34.219Z,77.00
2018-03-15T04:24:28.798Z,78.00
2018-03-15T04:29:23.954Z,77.10
2018-03-15T04:34:18.546Z,77.10
2018-03-15T04:39:13.026Z,77.50
2018-03-15T04:44:08.443Z,77.60
2018-03-15T04:49:02.845Z,77.60
2018-03-15T04:53:57.274Z,77.80
2018-03-15T04:58:52.420Z,77.40
2018-03-15T05:03:47.764Z,77.30
2018-03-15T05:08:43.174Z,77.60
2018-03-15T05:13:37.508Z,77.60
2018-03-15T05:18:31.903Z,77.50
2018-03-15T05:23:26.241Z,77.70
2018-03-15T05:28:21.613Z,77.30
2018-03-15T05:33:15.915Z,77.30
2018-03-15T05:38:10.229Z,77.30
2018-03-15T05:43:04.543Z,77.20
2018-03-15T05:47:58.849Z,77.30
2018-03-15T05:52:53.140Z,77.10
2018-03-15T05:57:47.462Z,76.70
2018-03-15T06:02:42.193Z,77.30
2018-03-15T06:07:37.306Z,76.10
2018-03-15T06:12:31.758Z,76.00
2018-03-15T06:17:26.072Z,75.80
2018-03-15T06:22:20.368Z,75.40
2018-03-15T06:27:14.774Z,74.90
2018-03-15T06:32:09.223Z,74.50
2018-03-15T06:37:04.308Z,73.40
2018-03-15T06:41:58.631Z,73.40
2018-03-15T06:46:53.133Z,73.40
2018-03-15T06:51:47.514Z,73.10
2018-03-15T06:56:41.901Z,72.80
2018-03-15T07:01:36.215Z,72.90
2018-03-15T07:06:30.616Z,73.00
2018-03-15T07:11:25.104Z,73.10
2018-03-15T07:16:19.418Z,70.20
2018-03-15T07:21:14.883Z,52.50
2018-03-15T07:26:09.988Z,46.70
2018-03-15T07:31:04.624Z,46.80
2018-03-15T07:35:59.702Z,44.20
2018-03-15T07:40:54.021Z,44.10
2018-03-15T07:45:50.781Z,41.90
2018-03-15T07:50:45.261Z,39.50
2018-03-15T07:55:39.803Z,42.60
2018-03-15T08:00:35.243Z,42.30
2018-03-15T08:05:30.322Z,42.00
2018-03-15T08:10:24.641Z,42.00
2018-03-15T08:15:19.014Z,40.70
2018-03-15T08:20:13.320Z,41.00
2018-03-15T08:25:08.138Z,41.10
2018-03-15T08:30:02.891Z,40.40
2018-03-15T08:34:57.986Z,39.20
2018-03-15T08:39:52.303Z,39.20
2018-03-15T08:44:46.644Z,36.30
2018-03-15T08:49:41.138Z,35.40
2018-03-15T08:54:35.451Z,35.20
2018-03-15T08:59:29.774Z,35.40
2018-03-15T09:04:24.229Z,37.70
2018-03-15T09:09:18.700Z,37.90
2018-03-15T09:14:13.385Z,37.70
2018-03-15T09:19:07.932Z,36.70
2018-03-15T09:24:03.166Z,30.80
2018-03-15T09:28:58.179Z,28.80
2018-03-15T09:33:53.390Z,28.60
2018-03-15T09:38:48.252Z,28.50
2018-03-15T09:43:42.819Z,28.90
2018-03-15T09:48:37.310Z,30.30
2018-03-15T09:53:32.591Z,31.30
2018-03-15T09:58:27.104Z,31.30
2018-03-15T10:03:21.608Z,34.60
2018-03-15T10:08:16.116Z,37.90
2018-03-15T10:13:10.842Z,40.40
2018-03-15T10:18:05.628Z,41.80
2018-03-15T10:23:00.269Z,43.00
2018-03-15T10:27:54.852Z,44.40
2018-03-15T10:32:55.285Z,44.10
2018-03-15T10:37:49.769Z,44.30
2018-03-15T10:42:45.068Z,45.00
2018-03-15T10:47:39.576Z,44.90
2018-03-15T10:52:34.060Z,44.50
2018-03-15T10:57:28.576Z,44.60
2018-03-15T11:18:10.870Z,45.00
2018-03-15T11:23:04.892Z,45.20
2018-03-15T11:27:59.226Z,45.30
2018-03-15T11:32:53.801Z,45.00
2018-03-15T11:37:48.329Z,45.00
2018-03-15T11:42:42.847Z,44.30
2018-03-15T11:47:38.116Z,45.20
2018-03-15T11:52:32.722Z,45.20
2018-03-15T11:57:27.225Z,45.50
2018-03-15T12:02:21.725Z,45.30
2018-03-15T12:07:16.215Z,45.20
2018-03-15T12:12:10.768Z,45.30
2018-03-15T12:17:05.893Z,45.70
2018-03-15T12:22:00.392Z,45.70
2018-03-15T12:26:54.794Z,45.90
2018-03-15T12:31:49.106Z,46.40
2018-03-15T12:36:43.306Z,46.50
2018-03-15T12:41:38.417Z,47.20
2018-03-15T12:46:32.752Z,47.20
2018-03-15T12:51:27.845Z,47.00
2018-03-15T12:56:22.140Z,46.90
2018-03-15T13:01:16.454Z,46.90
2018-03-15T13:06:11.550Z,46.70
2018-03-15T13:11:05.868Z,46.70
2018-03-15T13:16:00.327Z,46.90
2018-03-15T13:20:54.659Z,46.80
2018-03-15T13:25:49.129Z,46.80
2018-03-15T13:30:43.436Z,46.90
2018-03-15T13:35:38.010Z,46.90
2018-03-15T13:40:33.068Z,46.70
2018-03-15T13:45:27.364Z,46.70
2018-03-15T13:50:21.688Z,46.60
2018-03-15T13:55:16.004Z,46.30
2018-03-15T14:00:10.374Z,46.30
2018-03-15T14:05:04.672Z,45.00
2018-03-15T14:09:58.965Z,44.20
2018-03-15T14:14:53.261Z,44.40
2018-03-15T14:19:47.574Z,44.70
2018-03-15T14:24:42.372Z,45.40
2018-03-15T14:29:37.059Z,45.90
2018-03-15T14:34:31.549Z,45.60
2018-03-15T14:39:26.634Z,45.50
2018-03-15T14:44:20.984Z,45.40
2018-03-15T14:49:16.158Z,45.60
2018-03-15T14:54:10.511Z,45.60
2018-03-15T14:59:04.988Z,45.70
2018-03-15T15:04:00.286Z,45.50
2018-03-15T15:08:54.610Z,45.40
2018-03-15T15:13:48.920Z,44.00
2018-03-15T15:18:43.360Z,44.00
2018-03-15T15:23:37.683Z,44.60
2018-03-15T15:28:32.287Z,45.00
2018-03-15T15:33:26.862Z,45.60
2018-03-15T15:38:22.030Z,46.40
2018-03-15T15:43:16.667Z,46.40
2018-03-15T15:48:11.052Z,46.90
2018-03-15T15:53:06.461Z,47.40
2018-03-15T15:58:02.006Z,47.50
2018-03-15T16:02:56.650Z,47.50
2018-03-15T16:07:51.889Z,47.90
2018-03-15T16:12:46.758Z,47.90
2018-03-15T16:17:41.965Z,48.80
2018-03-15T16:22:36.480Z,48.80
2018-03-15T16:27:31.382Z,49.20
2018-03-15T16:32:26.153Z,49.60
2018-03-15T16:37:20.467Z,50.20
2018-03-15T16:42:15.570Z,51.00
2018-03-15T16:47:09.958Z,50.90
2018-03-15T16:52:04.313Z,51.00
2018-03-15T16:56:58.846Z,51.30
2018-03-15T17:01:53.659Z,52.10
2018-03-15T17:06:48.016Z,52.00
2018-03-15T17:11:43.316Z,51.90
2018-03-15T17:16:38.453Z,51.80
2018-03-15T17:21:33.219Z,51.70
2018-03-15T17:26:27.745Z,51.80
2018-03-15T17:31:22.399Z,51.30
2018-03-15T17:36:16.849Z,51.60
2018-03-15T17:41:12.801Z,51.80
2018-03-15T17:46:07.122Z,51.80
2018-03-15T17:51:02.412Z,51.90
2018-03-15T17:55:56.876Z,51.80
2018-03-15T18:00:51.712Z,53.00
2018-03-15T18:05:46.272Z,55.50
2018-03-15T18:10:40.633Z,58.40
2018-03-15T18:15:35.104Z,60.60
2018-03-15T18:20:29.753Z,62.80
2018-03-15T18:25:24.116Z,64.80
2018-03-15T18:30:18.469Z,66.00
2018-03-15T18:35:12.869Z,68.10
2018-03-15T18:40:07.679Z,70.40
2018-03-15T18:45:02.603Z,72.80
2018-03-15T18:49:57.817Z,76.70
2018-03-15T18:54:52.161Z,76.70
2018-03-15T18:59:47.390Z,77.10
2018-03-15T19:04:41.683Z,77.00
2018-03-15T19:09:36.903Z,80.50
2018-03-15T19:14:31.982Z,80.00
2018-03-15T19:19:26.874Z,80.10
2018-03-15T19:24:21.195Z,81.30
2018-03-15T19:29:15.505Z,81.20
2018-03-15T19:34:09.811Z,81.80
2018-03-15T19:39:04.904Z,84.30
2018-03-15T19:43:59.038Z,84.20
2018-03-15T19:48:53.359Z,84.80
2018-03-15T19:53:48.462Z,87.00
2018-03-15T19:58:43.844Z,88.30
2018-03-15T20:03:38.449Z,88.20
2018-03-15T20:08:32.797Z,87.70
2018-03-15T20:13:28.142Z,89.00
2018-03-15T20:18:23.223Z,88.90
2018-03-15T20:23:22.826Z,88.90
2018-03-15T20:28:22.572Z,89.70
2018-03-15T20:33:22.727Z,89.90
2018-03-15T20:38:17.915Z,90.30
2018-03-15T20:43:12.298Z,90.30
2018-03-15T20:48:11.944Z,90.10
2018-03-15T20:53:06.367Z,89.90
2018-03-15T20:58:00.875Z,90.00
2018-03-15T21:02:55.186Z,90.30
2018-03-15T21:07:49.499Z,90.40
2018-03-15T21:12:44.778Z,90.70
2018-03-15T21:17:39.501Z,90.60
2018-03-15T21:22:34.814Z,90.30
2018-03-15T21:27:29.286Z,90.60
2018-03-15T21:32:23.820Z,90.20
2018-03-15T21:37:18.126Z,90.40
2018-03-15T21:42:12.438Z,90.10
2018-03-15T21:47:06.737Z,90.40
2018-03-15T21:52:01.056Z,90.40
2018-03-15T21:56:55.390Z,90.20
2018-03-15T22:01:50.454Z,90.10
2018-03-15T22:06:45.219Z,90.10
2018-03-15T22:11:39.626Z,90.00
2018-03-15T22:16:34.716Z,90.00
2018-03-15T22:21:29.798Z,90.00
2018-03-15T22:26:24.247Z,89.70
2018-03-15T22:31:19.915Z,88.90
2018-03-15T22:36:14.310Z,88.70
2018-03-15T22:41:08.655Z,89.20
2018-03-15T22:46:02.516Z,89.20
2018-03-15T22:50:56.858Z,89.50
2018-03-15T22:55:51.162Z,89.40
2018-03-15T23:00:45.478Z,89.20
2018-03-15T23:05:41.325Z,89.50
2018-03-15T23:10:35.873Z,89.50
2018-03-15T23:15:30.338Z,90.00
2018-03-15T23:20:25.514Z,90.00
2018-03-15T23:25:19.609Z,90.00
2018-03-15T23:30:13.919Z,89.80
2018-03-15T23:35:08.288Z,90.00
2018-03-15T23:40:02.742Z,89.70
2018-03-15T23:44:57.050Z,89.20
2018-03-15T23:49:52.063Z,88.90
2018-03-15T23:54:46.531Z,89.50
2018-03-15T23:59:41.244Z,88.70
